createdAt,value
2022-12-12T00:00:53.000Z,0
2022-12-12T00:02:09.000Z,0
2022-12-12T00:03:25.000Z,0
2022-12-12T00:04:41.000Z,0
2022-12-12T00:05:56.000Z,0
2022-12-12T00:07:12.000Z,0
2022-12-12T00:08:29.000Z,0
2022-12-12T00:11:01.000Z,0
2022-12-12T00:12:17.000Z,0
2022-12-12T00:13:34.000Z,0
2022-12-12T00:16:06.000Z,0
2022-12-12T00:17:23.000Z,0
2022-12-12T00:18:39.000Z,0
2022-12-12T00:19:55.000Z,0
2022-12-12T00:21:10.000Z,0
2022-12-12T00:22:26.000Z,0
2022-12-12T00:23:42.000Z,0
2022-12-12T00:24:58.000Z,0
2022-12-12T00:26:15.000Z,0
2022-12-12T00:27:31.000Z,0
2022-12-12T00:28:47.000Z,0
2022-12-12T00:30:03.000Z,0
2022-12-12T00:31:20.000Z,0
2022-12-12T00:32:36.000Z,0
2022-12-12T00:33:52.000Z,0
2022-12-12T00:35:08.000Z,0
2022-12-12T00:36:23.000Z,0
2022-12-12T00:37:39.000Z,0
2022-12-12T00:38:56.000Z,0
2022-12-12T00:40:12.000Z,0
2022-12-12T00:41:28.000Z,0
2022-12-12T00:42:44.000Z,0
2022-12-12T00:44:01.000Z,0
2022-12-12T00:46:33.000Z,0
2022-12-12T00:49:06.000Z,0
2022-12-12T00:50:22.000Z,0
2022-12-12T00:51:37.000Z,0
2022-12-12T00:52:53.000Z,0
2022-12-12T00:54:09.000Z,0
2022-12-12T00:55:25.000Z,0
2022-12-12T00:56:42.000Z,0
2022-12-12T00:57:58.000Z,0
2022-12-12T00:59:14.000Z,0
2022-12-12T01:01:47.000Z,0
2022-12-12T01:03:03.000Z,0
2022-12-12T01:04:19.000Z,0
2022-12-12T01:05:36.000Z,0
2022-12-12T01:06:52.000Z,0
2022-12-12T01:08:08.000Z,0
2022-12-12T01:09:23.000Z,0
2022-12-12T01:10:40.000Z,0
2022-12-12T01:11:56.000Z,0
2022-12-12T01:13:12.000Z,0
2022-12-12T01:14:29.000Z,0
2022-12-12T01:15:45.000Z,0
2022-12-12T01:17:01.000Z,0
2022-12-12T01:18:18.000Z,0
2022-12-12T01:19:33.000Z,0
2022-12-12T01:20:48.000Z,0
2022-12-12T01:22:04.000Z,0
2022-12-12T01:23:21.000Z,0
2022-12-12T01:24:37.000Z,0
2022-12-12T01:25:53.000Z,0
2022-12-12T01:27:10.000Z,0
2022-12-12T01:28:26.000Z,0
2022-12-12T01:29:42.000Z,0
2022-12-12T01:30:58.000Z,0
2022-12-12T01:32:15.000Z,0
2022-12-12T01:33:31.000Z,0
2022-12-12T01:34:47.000Z,0
2022-12-12T01:36:04.000Z,0
2022-12-12T01:37:19.000Z,0
2022-12-12T01:39:51.000Z,0
2022-12-12T01:41:08.000Z,0
2022-12-12T01:42:24.000Z,0
2022-12-12T01:43:40.000Z,0
2022-12-12T01:44:57.000Z,0
2022-12-12T01:46:13.000Z,0
2022-12-12T01:47:29.000Z,0
2022-12-12T01:48:45.000Z,0
2022-12-12T01:50:02.000Z,0
2022-12-12T01:52:34.000Z,0
2022-12-12T01:53:50.000Z,0
2022-12-12T01:55:06.000Z,0
2022-12-12T01:56:22.000Z,0
2022-12-12T01:58:55.000Z,0
2022-12-12T02:00:11.000Z,0
2022-12-12T02:01:26.000Z,0
2022-12-12T02:02:42.000Z,0
2022-12-12T02:03:58.000Z,0
2022-12-12T02:05:14.000Z,0
2022-12-12T02:06:31.000Z,0
2022-12-12T02:07:47.000Z,0
2022-12-12T02:09:03.000Z,0
2022-12-12T02:10:19.000Z,0
2022-12-12T02:11:36.000Z,0
2022-12-12T02:12:52.000Z,0
2022-12-12T02:14:08.000Z,0
2022-12-12T02:15:24.000Z,0
2022-12-12T02:17:55.000Z,0
2022-12-12T02:19:12.000Z,0
2022-12-12T02:20:28.000Z,0
2022-12-12T02:21:44.000Z,0
2022-12-12T02:23:00.000Z,0
2022-12-12T02:25:33.000Z,0
2022-12-12T02:26:49.000Z,0
2022-12-12T02:28:06.000Z,0
2022-12-12T02:30:38.000Z,0
2022-12-12T02:31:54.000Z,0
2022-12-12T02:33:10.000Z,0
2022-12-12T02:34:25.000Z,0
2022-12-12T02:35:41.000Z,0
2022-12-12T02:36:58.000Z,0
2022-12-12T02:38:14.000Z,0
2022-12-12T02:39:30.000Z,0
2022-12-12T02:40:46.000Z,0
2022-12-12T02:42:03.000Z,0
2022-12-12T02:43:19.000Z,0
2022-12-12T02:44:35.000Z,0
2022-12-12T02:45:52.000Z,0
2022-12-12T02:47:07.000Z,0
2022-12-12T02:48:22.000Z,0
2022-12-12T02:49:38.000Z,0
2022-12-12T02:50:55.000Z,0
2022-12-12T02:52:11.000Z,0
2022-12-12T02:56:00.000Z,0
2022-12-12T02:57:16.000Z,0
2022-12-12T02:58:33.000Z,0
2022-12-12T02:59:49.000Z,0
2022-12-12T03:01:05.000Z,0
2022-12-12T03:02:21.000Z,0
2022-12-12T03:03:37.000Z,0
2022-12-12T03:04:52.000Z,0
2022-12-12T03:06:08.000Z,0
2022-12-12T03:08:41.000Z,0
2022-12-12T03:09:57.000Z,0
2022-12-12T03:11:13.000Z,0
2022-12-12T03:12:30.000Z,0
2022-12-12T03:13:46.000Z,0
2022-12-12T03:15:02.000Z,0
2022-12-12T03:16:19.000Z,0
2022-12-12T03:17:35.000Z,0
2022-12-12T03:18:51.000Z,0
2022-12-12T03:20:07.000Z,0
2022-12-12T03:21:23.000Z,0
2022-12-12T03:22:39.000Z,0
2022-12-12T03:23:55.000Z,0
2022-12-12T03:26:28.000Z,0
2022-12-12T03:27:43.000Z,0
2022-12-12T03:28:59.000Z,0
2022-12-12T03:30:15.000Z,0
2022-12-12T03:31:31.000Z,0
2022-12-12T03:34:04.000Z,0
2022-12-12T03:35:20.000Z,0
2022-12-12T03:36:36.000Z,0
2022-12-12T03:37:53.000Z,0
2022-12-12T03:39:09.000Z,0
2022-12-12T03:40:25.000Z,0
2022-12-12T03:41:41.000Z,0
2022-12-12T03:42:58.000Z,0
2022-12-12T03:44:14.000Z,0
2022-12-12T03:45:29.000Z,0
2022-12-12T03:46:46.000Z,0
2022-12-12T03:48:02.000Z,0
2022-12-12T03:49:18.000Z,0
2022-12-12T03:50:34.000Z,0
2022-12-12T03:51:51.000Z,0
2022-12-12T03:53:07.000Z,0
2022-12-12T03:54:23.000Z,0
2022-12-12T03:55:39.000Z,0
2022-12-12T03:56:54.000Z,0
2022-12-12T03:59:27.000Z,0
2022-12-12T04:00:43.000Z,0
2022-12-12T04:01:59.000Z,0
2022-12-12T04:03:15.000Z,0
2022-12-12T04:04:32.000Z,0
2022-12-12T04:05:48.000Z,0
2022-12-12T04:07:04.000Z,0
2022-12-12T04:08:20.000Z,0
2022-12-12T04:09:36.000Z,0
2022-12-12T04:10:52.000Z,0
2022-12-12T04:12:08.000Z,0
2022-12-12T04:13:25.000Z,0
2022-12-12T04:14:41.000Z,0
2022-12-12T04:15:57.000Z,0
2022-12-12T04:17:14.000Z,0
2022-12-12T04:18:30.000Z,0
2022-12-12T04:19:46.000Z,0
2022-12-12T04:21:02.000Z,0
2022-12-12T04:22:19.000Z,0
2022-12-12T04:24:50.000Z,0
2022-12-12T04:26:06.000Z,0
2022-12-12T04:27:21.000Z,0
2022-12-12T04:28:37.000Z,0
2022-12-12T04:29:54.000Z,0
2022-12-12T04:31:10.000Z,0
2022-12-12T04:33:42.000Z,0
2022-12-12T04:34:59.000Z,0
2022-12-12T04:37:31.000Z,0
2022-12-12T04:38:48.000Z,0
2022-12-12T04:40:04.000Z,0
2022-12-12T04:41:20.000Z,0
2022-12-12T04:43:52.000Z,0
2022-12-12T04:45:07.000Z,0
2022-12-12T04:47:39.000Z,0
2022-12-12T04:48:55.000Z,0
2022-12-12T04:50:11.000Z,0
2022-12-12T04:51:27.000Z,0
2022-12-12T04:52:44.000Z,0
2022-12-12T04:54:00.000Z,0
2022-12-12T04:55:16.000Z,0
2022-12-12T04:56:33.000Z,0
2022-12-12T04:57:49.000Z,0
2022-12-12T04:59:05.000Z,0
2022-12-12T05:02:53.000Z,0
2022-12-12T05:04:08.000Z,0
2022-12-12T05:05:24.000Z,0
2022-12-12T05:06:40.000Z,0
2022-12-12T05:07:56.000Z,0
2022-12-12T05:09:13.000Z,0
2022-12-12T05:10:29.000Z,0
2022-12-12T05:11:45.000Z,0
2022-12-12T05:13:01.000Z,0
2022-12-12T05:14:18.000Z,0
2022-12-12T05:15:34.000Z,0
2022-12-12T05:16:50.000Z,0
2022-12-12T05:18:06.000Z,0
2022-12-12T05:19:21.000Z,0
2022-12-12T05:20:37.000Z,0
2022-12-12T05:21:54.000Z,0
2022-12-12T05:23:10.000Z,0
2022-12-12T05:24:26.000Z,0
2022-12-12T05:25:42.000Z,0
2022-12-12T05:26:59.000Z,0
2022-12-12T05:28:15.000Z,0
2022-12-12T05:29:31.000Z,0
2022-12-12T05:30:48.000Z,0
2022-12-12T05:32:03.000Z,0
2022-12-12T05:33:18.000Z,0
2022-12-12T05:34:34.000Z,0
2022-12-12T05:35:51.000Z,0
2022-12-12T05:37:07.000Z,0
2022-12-12T05:40:56.000Z,0
2022-12-12T05:42:12.000Z,0
2022-12-12T05:43:28.000Z,0
2022-12-12T05:44:45.000Z,0
2022-12-12T05:46:01.000Z,0
2022-12-12T05:47:17.000Z,0
2022-12-12T05:48:33.000Z,0
2022-12-12T05:49:48.000Z,0
2022-12-12T05:51:04.000Z,0
2022-12-12T05:52:21.000Z,0
2022-12-12T05:53:37.000Z,0
2022-12-12T05:54:53.000Z,0
2022-12-12T05:56:09.000Z,0
2022-12-12T05:57:26.000Z,0
2022-12-12T05:58:42.000Z,0
2022-12-12T05:59:58.000Z,0
2022-12-12T06:01:15.000Z,0
2022-12-12T06:02:30.000Z,0
2022-12-12T06:03:45.000Z,0
2022-12-12T06:06:18.000Z,0
2022-12-12T06:07:34.000Z,0
2022-12-12T06:10:07.000Z,0
2022-12-12T06:11:23.000Z,0
2022-12-12T06:12:39.000Z,0
2022-12-12T06:13:55.942Z,0
2022-12-12T06:15:12.000Z,0
2022-12-12T06:16:28.000Z,0
2022-12-12T06:17:44.000Z,0
2022-12-12T06:19:00.000Z,0
2022-12-12T06:20:15.000Z,0
2022-12-12T06:21:31.000Z,0
2022-12-12T06:22:48.000Z,0
2022-12-12T06:24:04.000Z,0
2022-12-12T06:25:20.000Z,0
2022-12-12T06:26:36.000Z,0
2022-12-12T06:27:53.000Z,0
2022-12-12T06:29:09.000Z,0
2022-12-12T06:30:25.000Z,0
2022-12-12T06:31:42.000Z,0
2022-12-12T06:35:29.000Z,0
2022-12-12T06:38:01.000Z,0
2022-12-12T06:39:16.000Z,0
2022-12-12T06:41:48.000Z,0
2022-12-12T06:44:20.000Z,0
2022-12-12T06:45:37.000Z,0
2022-12-12T06:46:53.000Z,0
2022-12-12T06:48:09.000Z,0
2022-12-12T06:49:26.000Z,0
2022-12-12T06:50:42.000Z,0
2022-12-12T06:51:58.000Z,0
2022-12-12T06:53:15.000Z,0
2022-12-12T06:54:31.000Z,1
2022-12-12T06:55:47.000Z,0
2022-12-12T06:57:02.000Z,0
2022-12-12T06:58:19.000Z,0
2022-12-12T06:59:35.000Z,1
2022-12-12T07:00:51.000Z,1
2022-12-12T07:02:07.000Z,1
2022-12-12T07:03:24.000Z,0
2022-12-12T07:04:40.000Z,0
2022-12-12T07:05:56.000Z,2
2022-12-12T07:07:12.000Z,1
2022-12-12T07:08:28.000Z,1
2022-12-12T07:09:43.000Z,2
2022-12-12T07:10:59.000Z,2
2022-12-12T07:12:15.000Z,1
2022-12-12T07:13:32.000Z,1
2022-12-12T07:14:48.000Z,2
2022-12-12T07:16:04.000Z,4
2022-12-12T07:17:20.000Z,8
2022-12-12T07:18:37.000Z,8
2022-12-12T07:22:25.000Z,6
2022-12-12T07:23:42.000Z,14
2022-12-12T07:24:57.000Z,14
2022-12-12T07:26:12.000Z,15
2022-12-12T07:27:28.000Z,17
2022-12-12T07:28:44.000Z,18
2022-12-12T07:30:01.000Z,18
2022-12-12T07:31:17.000Z,19
2022-12-12T07:32:33.000Z,23
2022-12-12T07:33:49.000Z,25
2022-12-12T07:35:06.000Z,24
2022-12-12T07:36:22.000Z,24
2022-12-12T07:37:38.000Z,31
2022-12-12T07:38:53.000Z,33
2022-12-12T07:40:09.000Z,39
2022-12-12T07:41:25.000Z,40
2022-12-12T07:42:41.000Z,40
2022-12-12T07:43:57.000Z,45
2022-12-12T07:45:14.000Z,48
2022-12-12T07:47:46.000Z,53
2022-12-12T07:49:02.000Z,57
2022-12-12T07:50:18.000Z,55
2022-12-12T07:51:35.000Z,57
2022-12-12T07:52:51.000Z,59
2022-12-12T07:54:07.000Z,66
2022-12-12T07:55:23.000Z,72
2022-12-12T07:59:11.000Z,85
2022-12-12T08:00:26.000Z,85
2022-12-12T08:01:42.000Z,91
2022-12-12T08:02:58.000Z,96
2022-12-12T08:04:14.000Z,101
2022-12-12T08:05:30.000Z,100
2022-12-12T08:06:47.000Z,107
2022-12-12T08:08:03.000Z,108
2022-12-12T08:09:19.000Z,114
2022-12-12T08:10:35.000Z,122
2022-12-12T08:13:08.000Z,129
2022-12-12T08:14:24.000Z,139
2022-12-12T08:15:40.000Z,148
2022-12-12T08:16:56.000Z,139
2022-12-12T08:18:12.000Z,129
2022-12-12T08:19:28.000Z,137
2022-12-12T08:20:44.000Z,152
2022-12-12T08:22:00.000Z,152
2022-12-12T08:23:16.000Z,156
2022-12-12T08:24:32.000Z,170
2022-12-12T08:25:48.000Z,183
2022-12-12T08:27:04.000Z,197
2022-12-12T08:29:36.000Z,201
2022-12-12T08:30:51.000Z,201
2022-12-12T08:32:07.000Z,200
2022-12-12T08:33:24.000Z,202
2022-12-12T08:34:40.000Z,199
2022-12-12T08:35:56.000Z,202
2022-12-12T08:38:29.000Z,193
2022-12-12T08:39:45.000Z,195
2022-12-12T08:41:01.000Z,192
2022-12-12T08:42:17.000Z,202
2022-12-12T08:43:33.000Z,205
2022-12-12T08:46:06.000Z,219
2022-12-12T08:47:21.000Z,218
2022-12-12T08:48:37.000Z,224
2022-12-12T08:49:54.000Z,218
2022-12-12T08:51:10.000Z,226
2022-12-12T08:52:26.000Z,228
2022-12-12T08:54:59.000Z,237
2022-12-12T08:56:15.000Z,243
2022-12-12T08:57:31.000Z,243
2022-12-12T08:58:47.000Z,251
2022-12-12T09:00:04.000Z,248
2022-12-12T09:01:20.000Z,248
2022-12-12T09:02:36.000Z,247
2022-12-12T09:03:51.000Z,245
2022-12-12T09:05:07.000Z,243
2022-12-12T09:06:24.000Z,247
2022-12-12T09:07:40.000Z,253
2022-12-12T09:08:56.000Z,259
2022-12-12T09:10:12.000Z,269
2022-12-12T09:11:29.000Z,271
2022-12-12T09:12:44.000Z,282
2022-12-12T09:13:59.000Z,296
2022-12-12T09:15:15.000Z,310
2022-12-12T09:16:32.000Z,320
2022-12-12T09:17:48.000Z,304
2022-12-12T09:19:04.000Z,276
2022-12-12T09:20:20.000Z,270
2022-12-12T09:21:37.000Z,301
2022-12-12T09:22:53.000Z,330
2022-12-12T09:24:09.000Z,351
2022-12-12T09:25:25.000Z,363
2022-12-12T09:26:41.000Z,372
2022-12-12T09:27:56.000Z,373
2022-12-12T09:29:12.000Z,370
2022-12-12T09:30:28.000Z,360
2022-12-12T09:31:44.000Z,350
2022-12-12T09:33:01.000Z,343
2022-12-12T09:34:17.000Z,325
2022-12-12T09:35:33.000Z,329
2022-12-12T09:38:06.000Z,348
2022-12-12T09:39:22.000Z,358
2022-12-12T09:40:38.000Z,363
2022-12-12T09:41:54.000Z,358
2022-12-12T09:43:11.000Z,356
2022-12-12T09:44:26.000Z,357
2022-12-12T09:45:42.000Z,364
2022-12-12T09:46:58.000Z,366
2022-12-12T09:48:15.000Z,351
2022-12-12T09:49:31.000Z,334
2022-12-12T09:50:47.000Z,329
2022-12-12T09:52:03.000Z,314
2022-12-12T09:54:36.000Z,294
2022-12-12T09:55:52.000Z,295
2022-12-12T09:57:08.000Z,298
2022-12-12T09:58:24.000Z,306
2022-12-12T09:59:41.000Z,322
2022-12-12T10:00:56.000Z,344
2022-12-12T10:03:28.000Z,388
2022-12-12T10:04:44.000Z,395
2022-12-12T10:07:15.000Z,412
2022-12-12T10:08:31.000Z,421
2022-12-12T10:09:48.000Z,431
2022-12-12T10:11:04.000Z,445
2022-12-12T10:12:20.000Z,462
2022-12-12T10:13:36.000Z,476
2022-12-12T10:14:53.000Z,487
2022-12-12T10:16:09.000Z,501
2022-12-12T10:17:25.000Z,515
2022-12-12T10:18:41.000Z,524
2022-12-12T10:19:56.000Z,534
2022-12-12T10:21:12.000Z,550
2022-12-12T10:22:28.000Z,538
2022-12-12T10:23:44.000Z,532
2022-12-12T10:25:00.000Z,528
2022-12-12T10:26:17.000Z,505
2022-12-12T10:27:33.000Z,491
2022-12-12T10:28:49.000Z,486
2022-12-12T10:30:05.000Z,491
2022-12-12T10:32:38.000Z,497
2022-12-12T10:33:54.000Z,483
2022-12-12T10:35:10.000Z,488
2022-12-12T10:36:27.000Z,488
2022-12-12T10:37:42.000Z,491
2022-12-12T10:38:58.000Z,494
2022-12-12T10:40:14.000Z,491
2022-12-12T10:41:31.000Z,488
2022-12-12T10:42:47.000Z,484
2022-12-12T10:45:19.000Z,467
2022-12-12T10:46:34.000Z,464
2022-12-12T10:47:50.000Z,456
2022-12-12T10:49:06.000Z,449
2022-12-12T10:51:38.000Z,421
2022-12-12T10:52:55.000Z,422
2022-12-12T10:54:11.000Z,421
2022-12-12T10:55:27.000Z,431
2022-12-12T10:56:43.000Z,436
2022-12-12T10:58:00.000Z,437
2022-12-12T10:59:16.000Z,435
2022-12-12T11:00:32.000Z,450
2022-12-12T11:01:48.000Z,467
2022-12-12T11:03:05.000Z,461
2022-12-12T11:04:20.000Z,449
2022-12-12T11:05:36.000Z,458
2022-12-12T11:06:52.000Z,470
2022-12-12T11:08:08.000Z,479
2022-12-12T11:10:41.000Z,500
2022-12-12T11:11:56.000Z,506
2022-12-12T11:13:11.000Z,510
2022-12-12T11:14:28.000Z,515
2022-12-12T11:15:44.000Z,522
2022-12-12T11:17:00.000Z,539
2022-12-12T11:18:16.000Z,542
2022-12-12T11:19:33.000Z,548
2022-12-12T11:20:49.000Z,536
2022-12-12T11:22:05.000Z,522
2022-12-12T11:23:21.000Z,540
2022-12-12T11:24:38.000Z,579
2022-12-12T11:25:53.000Z,585
2022-12-12T11:27:08.000Z,612
2022-12-12T11:28:24.000Z,643
2022-12-12T11:29:41.000Z,698
2022-12-12T11:30:57.000Z,765
2022-12-12T11:32:13.000Z,830
2022-12-12T11:33:29.000Z,881
2022-12-12T11:34:45.000Z,876
2022-12-12T11:36:02.000Z,906
2022-12-12T11:37:18.000Z,970
2022-12-12T11:38:34.000Z,987
2022-12-12T11:39:49.000Z,1004
2022-12-12T11:41:05.000Z,967
2022-12-12T11:42:21.000Z,919
2022-12-12T11:43:37.000Z,894
2022-12-12T11:44:53.000Z,896
2022-12-12T11:46:10.000Z,931
2022-12-12T11:49:58.000Z,926
2022-12-12T11:51:15.000Z,783
2022-12-12T11:52:31.000Z,732
2022-12-12T11:53:47.000Z,800
2022-12-12T11:55:03.000Z,833
2022-12-12T11:56:19.000Z,847
2022-12-12T11:57:34.000Z,839
2022-12-12T11:58:50.000Z,798
2022-12-12T12:00:06.000Z,752
2022-12-12T12:02:39.000Z,737
2022-12-12T12:03:55.000Z,731
2022-12-12T12:05:11.000Z,706
2022-12-12T12:06:27.000Z,639
2022-12-12T12:07:44.000Z,607
2022-12-12T12:09:00.000Z,569
2022-12-12T12:11:32.000Z,523
2022-12-12T12:12:48.000Z,518
2022-12-12T12:14:03.000Z,524
2022-12-12T12:16:35.000Z,576
2022-12-12T12:17:52.000Z,631
2022-12-12T12:19:08.000Z,660
2022-12-12T12:20:24.000Z,750
2022-12-12T12:21:40.000Z,727
2022-12-12T12:22:56.000Z,686
2022-12-12T12:24:13.000Z,701
2022-12-12T12:26:45.000Z,752
2022-12-12T12:28:01.000Z,775
2022-12-12T12:29:18.000Z,752
2022-12-12T12:30:33.000Z,622
2022-12-12T12:31:49.000Z,564
2022-12-12T12:33:05.000Z,520
2022-12-12T12:34:22.000Z,464
2022-12-12T12:35:38.000Z,435
2022-12-12T12:38:10.000Z,541
2022-12-12T12:39:26.000Z,537
2022-12-12T12:40:42.000Z,500
2022-12-12T12:41:58.000Z,481
2022-12-12T12:43:14.000Z,425
2022-12-12T12:44:31.000Z,436
2022-12-12T12:45:47.000Z,503
2022-12-12T12:47:03.000Z,624
2022-12-12T12:48:19.000Z,696
2022-12-12T12:49:35.000Z,689
2022-12-12T12:50:52.000Z,701
2022-12-12T12:52:08.000Z,746
2022-12-12T12:54:39.000Z,694
2022-12-12T12:55:56.000Z,670
2022-12-12T12:57:11.000Z,622
2022-12-12T12:58:27.000Z,562
2022-12-12T12:59:43.000Z,499
2022-12-12T13:02:16.000Z,424
2022-12-12T13:03:32.000Z,467
2022-12-12T13:04:48.000Z,463
2022-12-12T13:06:05.000Z,451
2022-12-12T13:07:21.000Z,405
2022-12-12T13:08:37.000Z,383
2022-12-12T13:09:53.000Z,359
2022-12-12T13:11:09.000Z,353
2022-12-12T13:12:26.000Z,347
2022-12-12T13:13:41.000Z,356
2022-12-12T13:14:57.000Z,351
2022-12-12T13:16:13.000Z,354
2022-12-12T13:17:30.000Z,343
2022-12-12T13:18:46.000Z,338
2022-12-12T13:20:02.000Z,350
2022-12-12T13:21:17.000Z,371
2022-12-12T13:22:33.000Z,353
2022-12-12T13:23:49.000Z,296
2022-12-12T13:25:05.000Z,274
2022-12-12T13:26:21.000Z,301
2022-12-12T13:27:38.000Z,276
2022-12-12T13:28:54.000Z,296
2022-12-12T13:30:10.000Z,323
2022-12-12T13:31:26.000Z,326
2022-12-12T13:32:43.000Z,322
2022-12-12T13:35:15.000Z,305
2022-12-12T13:36:31.000Z,337
2022-12-12T13:37:47.000Z,372
2022-12-12T13:39:03.000Z,399
2022-12-12T13:40:19.000Z,439
2022-12-12T13:41:35.000Z,464
2022-12-12T13:42:51.000Z,475
2022-12-12T13:44:08.000Z,486
2022-12-12T13:45:24.000Z,463
2022-12-12T13:46:40.000Z,449
2022-12-12T13:47:56.000Z,424
2022-12-12T13:49:12.000Z,405
2022-12-12T13:50:27.000Z,383
2022-12-12T13:51:43.000Z,362
2022-12-12T13:52:59.000Z,321
2022-12-12T13:55:32.000Z,230
2022-12-12T13:56:48.000Z,237
2022-12-12T13:58:04.000Z,261
2022-12-12T13:59:20.000Z,269
2022-12-12T14:00:37.000Z,251
2022-12-12T14:01:53.000Z,250
2022-12-12T14:03:09.000Z,256
2022-12-12T14:05:42.000Z,256
2022-12-12T14:08:14.000Z,264
2022-12-12T14:09:30.000Z,259
2022-12-12T14:10:47.000Z,259
2022-12-12T14:12:03.000Z,262
2022-12-12T14:13:19.000Z,261
2022-12-12T14:14:35.000Z,250
2022-12-12T14:15:52.000Z,225
2022-12-12T14:17:08.000Z,203
2022-12-12T14:22:12.000Z,135
2022-12-12T14:23:27.000Z,125
2022-12-12T14:24:42.000Z,112
2022-12-12T14:25:58.000Z,109
2022-12-12T14:27:15.000Z,103
2022-12-12T14:28:31.000Z,100
2022-12-12T14:29:47.000Z,98
2022-12-12T14:31:03.000Z,89
2022-12-12T14:33:36.000Z,78
2022-12-12T14:34:52.000Z,76
2022-12-12T14:36:08.000Z,73
2022-12-12T14:37:25.000Z,69
2022-12-12T14:38:41.000Z,65
2022-12-12T14:39:57.000Z,63
2022-12-12T14:41:13.000Z,51
2022-12-12T14:42:29.000Z,49
2022-12-12T14:43:45.000Z,43
2022-12-12T14:46:17.000Z,27
2022-12-12T14:47:32.000Z,36
2022-12-12T14:48:48.000Z,47
2022-12-12T14:50:04.000Z,76
2022-12-12T14:51:20.000Z,97
2022-12-12T14:52:36.000Z,90
2022-12-12T14:53:53.000Z,90
2022-12-12T14:55:09.000Z,146
2022-12-12T14:56:25.000Z,156
2022-12-12T14:58:58.000Z,152
2022-12-12T15:00:14.000Z,138
2022-12-12T15:02:46.000Z,130
2022-12-12T15:04:03.000Z,130
2022-12-12T15:05:18.000Z,125
2022-12-12T15:06:34.000Z,96
2022-12-12T15:07:50.000Z,86
2022-12-12T15:09:06.000Z,74
2022-12-12T15:10:23.000Z,70
2022-12-12T15:11:39.000Z,68
2022-12-12T15:12:55.000Z,55
2022-12-12T15:14:11.000Z,53
2022-12-12T15:16:44.000Z,46
2022-12-12T15:18:00.000Z,47
2022-12-12T15:19:16.000Z,50
2022-12-12T15:21:49.000Z,40
2022-12-12T15:24:20.000Z,43
2022-12-12T15:25:37.000Z,46
2022-12-12T15:26:53.000Z,45
2022-12-12T15:29:25.000Z,38
2022-12-12T15:30:41.000Z,30
2022-12-12T15:31:58.000Z,30
2022-12-12T15:33:14.000Z,24
2022-12-12T15:34:30.000Z,20
2022-12-12T15:38:19.000Z,16
2022-12-12T15:39:34.000Z,11
2022-12-12T15:40:50.000Z,11
2022-12-12T15:42:07.000Z,7
2022-12-12T15:43:23.000Z,8
2022-12-12T15:44:39.000Z,9
2022-12-12T15:45:55.000Z,5
2022-12-12T15:47:12.000Z,2
2022-12-12T15:48:28.000Z,1
2022-12-12T15:49:44.000Z,2
2022-12-12T15:52:17.000Z,0
2022-12-12T15:53:33.000Z,1
2022-12-12T15:54:49.000Z,1
2022-12-12T15:56:04.000Z,1
2022-12-12T15:57:20.000Z,1
2022-12-12T15:58:37.000Z,0
2022-12-12T15:59:53.000Z,0
2022-12-12T16:01:09.000Z,0
2022-12-12T16:02:26.000Z,0
2022-12-12T16:03:42.000Z,0
2022-12-12T16:04:57.000Z,0
2022-12-12T16:06:13.000Z,0
2022-12-12T16:07:29.000Z,0
2022-12-12T16:08:45.000Z,0
2022-12-12T16:10:01.000Z,0
2022-12-12T16:11:18.000Z,0
2022-12-12T16:12:34.000Z,0
2022-12-12T16:13:50.000Z,0
2022-12-12T16:15:07.000Z,0
2022-12-12T16:16:23.000Z,0
2022-12-12T16:17:39.000Z,0
2022-12-12T16:18:54.000Z,0
2022-12-12T16:20:10.000Z,0
2022-12-12T16:21:26.000Z,0
2022-12-12T16:22:42.000Z,0
2022-12-12T16:23:59.000Z,0
2022-12-12T16:25:15.000Z,0
2022-12-12T16:26:31.000Z,0
2022-12-12T16:27:47.000Z,0
2022-12-12T16:29:04.000Z,0
2022-12-12T16:30:20.000Z,0
2022-12-12T16:31:36.000Z,0
2022-12-12T16:32:53.000Z,0
2022-12-12T16:34:09.000Z,0
2022-12-12T16:35:25.000Z,0
2022-12-12T16:37:57.000Z,0
2022-12-12T16:40:29.000Z,0
2022-12-12T16:41:45.000Z,0
2022-12-12T16:43:00.000Z,0
2022-12-12T16:44:16.000Z,0
2022-12-12T16:45:33.000Z,0
2022-12-12T16:46:49.000Z,0
2022-12-12T16:48:05.000Z,0
2022-12-12T16:49:21.000Z,0
2022-12-12T16:50:38.000Z,0
2022-12-12T16:51:54.000Z,0
2022-12-12T16:53:10.000Z,0
2022-12-12T16:54:26.000Z,0
2022-12-12T16:55:41.000Z,0
2022-12-12T16:56:56.000Z,0
2022-12-12T16:58:13.000Z,0
2022-12-12T16:59:29.000Z,0
2022-12-12T17:00:45.000Z,0
2022-12-12T17:02:01.000Z,0
2022-12-12T17:03:18.000Z,0
2022-12-12T17:05:50.000Z,0
2022-12-12T17:07:07.000Z,0
2022-12-12T17:08:23.000Z,0
2022-12-12T17:09:39.000Z,0
2022-12-12T17:10:55.000Z,0
2022-12-12T17:12:12.000Z,0
2022-12-12T17:13:27.000Z,0
2022-12-12T17:14:43.000Z,0
2022-12-12T17:16:00.000Z,0
2022-12-12T17:17:16.000Z,0
2022-12-12T17:18:32.000Z,0
2022-12-12T17:19:48.000Z,0
2022-12-12T17:21:05.000Z,0
2022-12-12T17:22:21.000Z,0
2022-12-12T17:23:37.000Z,0
2022-12-12T17:24:54.000Z,0
2022-12-12T17:26:10.000Z,0
2022-12-12T17:27:26.000Z,0
2022-12-12T17:28:42.000Z,0
2022-12-12T17:29:58.000Z,0
2022-12-12T17:31:14.000Z,0
2022-12-12T17:32:30.000Z,0
2022-12-12T17:33:47.000Z,0
2022-12-12T17:35:03.000Z,0
2022-12-12T17:36:19.000Z,0
2022-12-12T17:37:35.000Z,0
2022-12-12T17:38:52.000Z,0
2022-12-12T17:40:08.000Z,0
2022-12-12T17:41:24.000Z,0
2022-12-12T17:43:57.000Z,0
2022-12-12T17:45:13.000Z,0
2022-12-12T17:46:29.000Z,0
2022-12-12T17:47:45.000Z,0
2022-12-12T17:49:01.000Z,0
2022-12-12T17:50:17.000Z,0
2022-12-12T17:51:34.000Z,0
2022-12-12T17:54:06.000Z,0
2022-12-12T17:56:39.000Z,0
2022-12-12T17:57:54.000Z,0
2022-12-12T17:59:09.000Z,0
2022-12-12T18:00:26.000Z,0
2022-12-12T18:01:42.000Z,0
2022-12-12T18:02:58.000Z,0
2022-12-12T18:04:15.000Z,0
2022-12-12T18:05:31.000Z,0
2022-12-12T18:06:47.000Z,0
2022-12-12T18:08:03.000Z,0
2022-12-12T18:09:20.000Z,0
2022-12-12T18:10:36.000Z,0
2022-12-12T18:11:51.000Z,0
2022-12-12T18:13:07.000Z,0
2022-12-12T18:14:23.000Z,0
2022-12-12T18:18:12.000Z,0
2022-12-12T18:19:28.000Z,0
2022-12-12T18:20:44.000Z,0
2022-12-12T18:22:01.000Z,0
2022-12-12T18:23:17.000Z,0
2022-12-12T18:24:33.000Z,0
2022-12-12T18:25:50.000Z,0
2022-12-12T18:27:06.000Z,0
2022-12-12T18:28:21.000Z,0
2022-12-12T18:29:36.000Z,0
2022-12-12T18:30:53.000Z,0
2022-12-12T18:32:09.000Z,0
2022-12-12T18:34:42.000Z,0
2022-12-12T18:35:58.000Z,0
2022-12-12T18:37:14.000Z,0
2022-12-12T18:38:30.000Z,0
2022-12-12T18:39:47.000Z,0
2022-12-12T18:41:03.000Z,0
2022-12-12T18:42:19.000Z,0
2022-12-12T18:43:36.000Z,0
2022-12-12T18:44:52.000Z,0
2022-12-12T18:46:07.000Z,0
2022-12-12T18:47:23.000Z,0
2022-12-12T18:48:40.000Z,0
2022-12-12T18:49:56.000Z,0
2022-12-12T18:51:12.000Z,0
2022-12-12T18:52:29.000Z,0
2022-12-12T18:53:45.000Z,0
2022-12-12T18:55:01.000Z,0
2022-12-12T18:56:17.000Z,0
2022-12-12T18:57:32.000Z,0
2022-12-12T18:58:48.000Z,0
2022-12-12T19:00:04.000Z,0
2022-12-12T19:01:21.000Z,0
2022-12-12T19:02:37.000Z,0
2022-12-12T19:03:53.000Z,0
2022-12-12T19:05:10.000Z,0
2022-12-12T19:06:26.000Z,0
2022-12-12T19:07:42.000Z,0
2022-12-12T19:08:58.000Z,0
2022-12-12T19:10:15.000Z,0
2022-12-12T19:11:31.000Z,0
2022-12-12T19:12:47.000Z,0
2022-12-12T19:14:03.000Z,0
2022-12-12T19:16:35.000Z,0
2022-12-12T19:17:51.000Z,0
2022-12-12T19:19:08.000Z,0
2022-12-12T19:20:24.000Z,0
2022-12-12T19:21:40.000Z,0
2022-12-12T19:22:57.000Z,0
2022-12-12T19:25:29.000Z,0
2022-12-12T19:26:45.000Z,0
2022-12-12T19:28:02.000Z,0
2022-12-12T19:29:18.000Z,0
2022-12-12T19:30:33.000Z,0
2022-12-12T19:31:50.000Z,0
2022-12-12T19:33:06.000Z,0
2022-12-12T19:34:22.000Z,0
2022-12-12T19:35:39.000Z,0
2022-12-12T19:36:55.000Z,0
2022-12-12T19:38:11.000Z,0
2022-12-12T19:39:27.000Z,0
2022-12-12T19:40:44.000Z,0
2022-12-12T19:42:00.000Z,0
2022-12-12T19:43:16.000Z,0
2022-12-12T19:44:33.000Z,0
2022-12-12T19:45:49.000Z,0
2022-12-12T19:47:04.000Z,0
2022-12-12T19:48:20.000Z,0
2022-12-12T19:49:37.000Z,0
2022-12-12T19:50:53.000Z,0
2022-12-12T19:52:09.000Z,0
2022-12-12T19:53:26.000Z,0
2022-12-12T19:54:42.000Z,0
2022-12-12T19:55:58.000Z,0
2022-12-12T19:57:14.000Z,0
2022-12-12T19:58:31.000Z,0
2022-12-12T19:59:47.000Z,0
2022-12-12T20:01:03.000Z,0
2022-12-12T20:02:20.000Z,0
2022-12-12T20:03:35.000Z,0
2022-12-12T20:04:51.000Z,0
2022-12-12T20:06:07.000Z,0
2022-12-12T20:07:24.000Z,0
2022-12-12T20:08:40.000Z,0